KALM

Alamogordo-White Sands Regional Airport

Alamogordo, New Mexico, USA
METAR KALM 172115Z AUTO 00000KT 10SM CLR 17/M13 A3006 RMK AO2
Observed Flight Rules
Nov-17 @ 21:15 UTC (22 minutes ago) Visual Flight Rules
Visibility Clouds
10 miles
  • Clear skies
Temperatures Readings
Current 17°C / 63°F
Dewpoint -13°C / 9°F
Humidity 12%
Altimeter 30.06" Hg
Pressure 1018 hPa
Elevation 1279
METAR KALM 172115Z AUTO 00000KT 10SM CLR 17/M13 A3006 RMK AO2
Observed Flight Rules
Nov-17 @ 21:15 UTC
(22 minutes ago)
VFR
Clouds
  • Clear skies
Temperature Dewpoint
17°C / 63°F -13°C / 9°F
Humidity Altimeter Pressure
12% 30.06" Hg 1018 hPa